createdAt,value
2019-05-26T00:11:54.062Z,55.67
2019-05-26T00:14:28.624Z,55.75
2019-05-26T00:28:25.731Z,55.60
2019-05-26T00:39:35.485Z,55.60
2019-05-26T01:05:57.789Z,55.29
2019-05-26T01:35:21.829Z,55.69
2019-05-26T01:40:41.220Z,55.65
2019-05-26T01:46:07.351Z,55.46
2019-05-26T01:57:08.042Z,55.61
2019-05-26T02:05:51.699Z,55.77
2019-05-26T02:11:33.366Z,56.03
2019-05-26T02:20:09.060Z,56.22
2019-05-26T02:32:18.591Z,56.65
2019-05-26T02:35:00.069Z,56.68
2019-05-26T02:37:59.825Z,56.50
2019-05-26T02:40:43.869Z,56.49
2019-05-26T02:43:13.469Z,56.62
2019-05-26T02:48:40.231Z,57.01
2019-05-26T02:51:09.936Z,57.35
2019-05-26T02:53:39.426Z,57.36
2019-05-26T02:56:09.087Z,57.45
2019-05-26T02:58:38.643Z,57.57
2019-05-26T03:01:08.354Z,57.69
2019-05-26T03:03:38.319Z,57.70
2019-05-26T03:06:09.022Z,57.74
2019-05-26T03:08:39.900Z,57.79
2019-05-26T03:11:11.077Z,57.84
2019-05-26T03:13:49.260Z,57.91
2019-05-26T03:16:39.000Z,57.84
2019-05-26T03:19:12.997Z,57.91
2019-05-26T03:21:46.700Z,57.85
2019-05-26T03:24:32.592Z,57.80
2019-05-26T03:29:59.052Z,57.77
2019-05-26T03:32:49.240Z,57.87
2019-05-26T03:35:20.326Z,57.85
2019-05-26T03:43:30.159Z,58.21
2019-05-26T03:46:20.072Z,58.36
2019-05-26T03:48:57.773Z,58.27
2019-05-26T04:04:25.095Z,58.31
2019-05-26T04:06:54.682Z,58.62
2019-05-26T04:16:26.676Z,58.12
2019-05-26T04:43:15.163Z,57.77
2019-05-26T05:00:23.906Z,57.70
2019-05-26T05:03:03.530Z,57.51
2019-05-26T05:39:55.475Z,57.80
2019-05-26T05:42:25.150Z,57.91
2019-05-26T05:44:54.654Z,58.02
2019-05-26T05:47:46.016Z,57.87
2019-05-26T05:50:22.794Z,57.83
2019-05-26T05:52:52.535Z,57.75
2019-05-26T06:32:04.693Z,59.18
2019-05-26T06:34:44.510Z,59.30
2019-05-26T06:40:32.431Z,59.43
2019-05-26T08:45:46.953Z,61.77
2019-05-26T08:50:58.755Z,61.81
2019-05-26T08:53:28.266Z,61.84
2019-05-26T08:59:09.839Z,61.96
2019-05-26T09:01:40.437Z,61.92
2019-05-26T09:07:25.874Z,61.94
2019-05-26T09:10:07.410Z,61.92
2019-05-26T09:12:36.859Z,61.94
2019-05-26T09:15:07.032Z,61.97
2019-05-26T09:17:36.614Z,61.99
2019-05-26T09:20:10.918Z,62.10
2019-05-26T09:22:38.957Z,62.06
2019-05-26T09:25:08.638Z,62.11
2019-05-26T09:27:38.607Z,62.07
2019-05-26T09:30:08.944Z,62.04
2019-05-26T09:32:38.700Z,62.17
2019-05-26T09:35:08.165Z,62.30
2019-05-26T09:37:37.627Z,62.45
2019-05-26T09:40:07.765Z,62.56
2019-05-26T09:42:40.312Z,62.34
2019-05-26T09:45:10.235Z,62.47
2019-05-26T09:47:42.350Z,62.45
2019-05-26T09:50:12.138Z,62.30
2019-05-26T09:52:53.992Z,62.33
2019-05-26T09:55:25.368Z,62.27
2019-05-26T09:57:56.285Z,62.13
2019-05-26T10:00:28.067Z,61.90
2019-05-26T10:02:59.211Z,61.90
2019-05-26T10:05:28.837Z,61.91
2019-05-26T10:07:58.241Z,61.79
2019-05-26T10:10:29.085Z,61.83
2019-05-26T10:13:00.677Z,61.99
2019-05-26T10:15:33.011Z,61.73
2019-05-26T10:18:02.520Z,61.83
2019-05-26T10:20:33.696Z,61.92
2019-05-26T10:23:05.347Z,61.92
2019-05-26T10:25:37.603Z,61.56
2019-05-26T10:28:06.990Z,61.44
2019-05-26T10:30:36.477Z,61.64
2019-05-26T10:33:06.041Z,61.75
2019-05-26T10:35:35.517Z,61.92
2019-05-26T10:38:15.144Z,61.91
2019-05-26T10:40:48.190Z,62.08
2019-05-26T10:43:19.352Z,62.17
2019-05-26T10:45:55.818Z,62.21
2019-05-26T10:48:25.281Z,62.19
2019-05-26T10:50:54.794Z,62.40
2019-05-26T10:53:26.938Z,62.66
2019-05-26T10:55:59.748Z,62.71
2019-05-26T10:58:29.179Z,62.67
2019-05-26T11:00:58.720Z,62.71
2019-05-26T11:03:31.009Z,62.79
2019-05-26T11:06:00.350Z,62.62
2019-05-26T11:08:29.837Z,62.63
2019-05-26T11:11:32.496Z,62.81
2019-05-26T11:14:12.328Z,62.84
2019-05-26T11:17:01.321Z,62.98
2019-05-26T11:19:43.178Z,62.75
2019-05-26T11:22:14.449Z,62.71
2019-05-26T11:24:49.205Z,62.78
2019-05-26T11:27:18.695Z,62.91
2019-05-26T11:29:49.265Z,62.81
2019-05-26T11:32:18.609Z,62.71
2019-05-26T11:35:00.729Z,63.05
2019-05-26T11:37:19.173Z,63.01
2019-05-26T11:39:48.681Z,63.00
2019-05-26T11:42:17.982Z,62.93
2019-05-26T11:44:47.613Z,62.81
2019-05-26T11:47:17.078Z,62.79
2019-05-26T11:49:46.440Z,62.70
2019-05-26T11:52:15.797Z,62.63
2019-05-26T11:54:45.126Z,62.92
2019-05-26T11:57:14.533Z,62.79
2019-05-26T11:59:47.357Z,62.73
2019-05-26T12:02:15.276Z,62.60
2019-05-26T12:04:44.569Z,62.54
2019-05-26T12:07:16.152Z,62.53
2019-05-26T12:09:45.509Z,62.50
2019-05-26T12:12:17.802Z,62.40
2019-05-26T12:14:47.178Z,62.56
2019-05-26T12:17:16.643Z,62.57
2019-05-26T12:19:46.147Z,62.71
2019-05-26T12:22:15.523Z,62.50
2019-05-26T12:24:44.967Z,62.59
2019-05-26T12:27:14.231Z,62.66
2019-05-26T12:29:44.087Z,62.53
2019-05-26T12:32:13.526Z,62.57
2019-05-26T12:34:42.917Z,62.70
2019-05-26T12:37:12.371Z,62.81
2019-05-26T12:39:41.801Z,62.70
2019-05-26T12:42:16.885Z,62.88
2019-05-26T12:44:49.607Z,62.83
2019-05-26T12:47:15.719Z,63.00
2019-05-26T12:49:45.121Z,63.18
2019-05-26T12:52:15.065Z,63.03
2019-05-26T12:54:46.872Z,62.98
2019-05-26T12:57:16.246Z,63.10
2019-05-26T12:59:45.605Z,63.33
2019-05-26T13:02:15.166Z,63.46
2019-05-26T13:04:44.546Z,63.27
2019-05-26T13:07:13.957Z,62.98
2019-05-26T13:09:43.370Z,63.23
2019-05-26T13:12:12.737Z,63.05
2019-05-26T13:14:42.140Z,63.36
2019-05-26T13:17:13.229Z,63.45
2019-05-26T13:19:42.710Z,63.45
2019-05-26T13:22:12.169Z,63.33
2019-05-26T13:24:41.569Z,63.14
2019-05-26T13:27:10.952Z,62.97
2019-05-26T13:29:40.305Z,62.73
2019-05-26T13:32:09.662Z,62.70
2019-05-26T13:34:39.028Z,62.68
2019-05-26T13:37:08.518Z,62.79
2019-05-26T13:39:37.875Z,62.80
2019-05-26T13:42:07.160Z,62.91
2019-05-26T13:44:36.519Z,62.90
2019-05-26T13:47:05.774Z,62.91
2019-05-26T13:49:35.028Z,62.98
2019-05-26T13:52:04.456Z,63.08
2019-05-26T13:54:33.850Z,62.89
2019-05-26T13:57:03.161Z,63.09
2019-05-26T13:59:32.439Z,62.93
2019-05-26T14:02:01.929Z,63.19
2019-05-26T14:04:31.254Z,63.25
2019-05-26T14:07:00.606Z,63.49
2019-05-26T14:09:29.890Z,63.37
2019-05-26T14:11:59.204Z,63.22
2019-05-26T14:14:29.288Z,63.12
2019-05-26T14:17:00.226Z,63.38
2019-05-26T14:19:29.834Z,63.40
2019-05-26T14:21:59.844Z,63.33
2019-05-26T14:24:29.181Z,63.18
2019-05-26T14:26:58.577Z,62.74
2019-05-26T14:29:27.984Z,62.44
2019-05-26T14:31:57.247Z,62.18
2019-05-26T14:34:26.562Z,62.51
2019-05-26T14:36:55.955Z,62.48
2019-05-26T14:39:25.330Z,63.85
2019-05-26T14:41:57.068Z,65.11
2019-05-26T14:44:26.428Z,63.63
2019-05-26T14:46:55.842Z,60.84
2019-05-26T14:49:25.226Z,59.68
2019-05-26T14:51:54.595Z,59.36
2019-05-26T14:54:24.028Z,58.83
2019-05-26T14:56:55.792Z,58.68
2019-05-26T14:59:25.208Z,58.10
2019-05-26T15:01:54.763Z,57.52
2019-05-26T15:04:24.342Z,57.56
2019-05-26T15:06:54.682Z,57.58
2019-05-26T15:09:25.517Z,56.31
2019-05-26T15:11:55.207Z,56.01
2019-05-26T15:14:24.762Z,55.58
2019-05-26T15:16:54.156Z,56.00
2019-05-26T15:19:23.735Z,54.83
2019-05-26T15:21:53.200Z,54.46
2019-05-26T15:24:23.249Z,54.02
2019-05-26T15:26:52.680Z,52.74
2019-05-26T15:29:22.063Z,53.13
2019-05-26T15:31:51.557Z,55.89
2019-05-26T15:34:20.956Z,55.07
2019-05-26T15:36:50.363Z,55.71
2019-05-26T15:39:22.745Z,53.32
2019-05-26T15:41:52.172Z,52.34
2019-05-26T15:44:25.258Z,51.90
2019-05-26T15:46:54.662Z,51.09
2019-05-26T15:49:24.283Z,49.79
2019-05-26T15:51:53.741Z,50.49
2019-05-26T15:54:23.307Z,50.25
2019-05-26T15:56:52.859Z,50.37
2019-05-26T15:59:22.491Z,49.21
2019-05-26T16:01:51.986Z,49.25
2019-05-26T16:04:21.414Z,48.73
2019-05-26T16:06:50.877Z,47.83
2019-05-26T16:09:21.133Z,47.83
2019-05-26T16:11:51.373Z,45.87
2019-05-26T16:14:20.907Z,44.21
2019-05-26T16:16:51.638Z,43.61
2019-05-26T16:19:21.151Z,43.21
2019-05-26T16:21:50.638Z,43.27
2019-05-26T16:24:20.084Z,44.08
2019-05-26T16:26:49.488Z,44.55
2019-05-26T16:29:18.927Z,46.13
2019-05-26T16:31:48.499Z,45.60
2019-05-26T16:34:19.488Z,44.84
2019-05-26T16:36:48.900Z,46.18
2019-05-26T16:39:18.533Z,44.66
2019-05-26T16:41:48.021Z,42.58
2019-05-26T16:44:17.638Z,41.03
2019-05-26T16:46:55.941Z,40.38
2019-05-26T16:49:18.286Z,39.02
2019-05-26T16:51:50.311Z,39.72
2019-05-26T16:54:19.821Z,39.45
2019-05-26T16:56:49.476Z,39.75
2019-05-26T16:59:20.056Z,40.57
2019-05-26T17:01:49.796Z,39.07
2019-05-26T17:04:22.266Z,38.33
2019-05-26T17:06:51.783Z,38.32
2019-05-26T17:09:21.356Z,39.09
2019-05-26T17:11:50.861Z,39.68
2019-05-26T17:14:23.812Z,40.07
2019-05-26T17:16:53.384Z,38.95
2019-05-26T17:19:25.249Z,37.93
2019-05-26T17:21:58.593Z,36.38
2019-05-26T17:24:31.269Z,36.42
2019-05-26T17:27:02.175Z,37.03
2019-05-26T17:29:33.720Z,37.30
2019-05-26T17:32:08.730Z,37.81
2019-05-26T17:34:41.880Z,38.29
2019-05-26T17:37:11.478Z,38.58
2019-05-26T17:39:41.083Z,37.49
2019-05-26T17:42:10.606Z,38.04
2019-05-26T17:44:42.222Z,36.66
2019-05-26T17:47:12.808Z,36.74
2019-05-26T17:49:43.127Z,35.94
2019-05-26T17:52:13.164Z,34.96
2019-05-26T17:54:42.680Z,36.12
2019-05-26T17:57:12.988Z,37.16
2019-05-26T17:59:43.411Z,37.54
2019-05-26T18:02:17.276Z,37.68
2019-05-26T18:04:50.406Z,38.85
2019-05-26T18:07:20.947Z,40.27
2019-05-26T18:09:50.569Z,41.71
2019-05-26T18:12:20.117Z,41.94
2019-05-26T18:14:49.673Z,41.99
2019-05-26T18:17:19.963Z,42.32
2019-05-26T18:20:01.907Z,42.09
2019-05-26T18:22:34.303Z,42.32
2019-05-26T18:25:13.563Z,42.50
2019-05-26T18:27:43.993Z,42.46
2019-05-26T18:30:14.051Z,41.76
2019-05-26T18:32:44.996Z,41.41
2019-05-26T18:35:15.411Z,41.44
2019-05-26T18:37:45.013Z,41.61
2019-05-26T18:51:16.920Z,40.29
2019-05-26T19:08:55.239Z,41.65
2019-05-26T19:17:20.500Z,41.54
2019-05-26T19:19:50.737Z,41.93
2019-05-26T19:22:20.346Z,41.41
2019-05-26T19:27:56.918Z,43.02
2019-05-26T19:36:28.801Z,42.57
2019-05-26T19:38:59.941Z,41.19
2019-05-26T19:42:00.530Z,40.47
2019-05-26T19:44:32.276Z,40.92
2019-05-26T19:47:23.106Z,41.55
2019-05-26T19:50:11.621Z,42.08
2019-05-26T19:52:41.100Z,42.86
2019-05-26T19:55:10.903Z,43.46
2019-05-26T19:57:40.989Z,44.04
2019-05-26T20:00:12.861Z,44.49
2019-05-26T20:02:42.406Z,44.89
2019-05-26T20:05:12.439Z,45.21
2019-05-26T20:07:42.122Z,45.54
2019-05-26T20:10:12.965Z,45.98
2019-05-26T20:12:42.509Z,46.36
2019-05-26T20:15:13.230Z,46.84
2019-05-26T20:17:42.605Z,47.12
2019-05-26T20:20:13.530Z,47.52
2019-05-26T20:22:42.976Z,47.92
2019-05-26T20:25:12.628Z,48.20
2019-05-26T20:27:42.270Z,48.51
2019-05-26T20:30:12.437Z,48.82
2019-05-26T20:32:41.777Z,49.11
2019-05-26T20:35:11.449Z,49.25
2019-05-26T20:37:40.945Z,49.60
2019-05-26T20:40:11.043Z,49.71
2019-05-26T20:42:40.470Z,49.84
2019-05-26T20:45:10.400Z,49.99
2019-05-26T20:47:39.772Z,50.11
2019-05-26T20:50:10.523Z,50.12
2019-05-26T20:52:39.913Z,50.13
2019-05-26T20:55:10.247Z,50.30
2019-05-26T20:57:39.633Z,50.44
2019-05-26T21:00:11.603Z,50.65
2019-05-26T21:02:41.789Z,50.72
2019-05-26T21:05:11.578Z,50.82
2019-05-26T21:07:41.085Z,50.98
2019-05-26T21:10:11.909Z,51.08
2019-05-26T21:12:41.557Z,51.16
2019-05-26T21:15:11.563Z,51.15
2019-05-26T21:17:40.984Z,51.12
2019-05-26T21:20:11.131Z,51.04
2019-05-26T21:22:40.460Z,50.95
2019-05-26T21:25:11.235Z,51.03
2019-05-26T21:27:40.702Z,51.09
2019-05-26T21:30:11.986Z,51.14
2019-05-26T21:32:41.466Z,51.37
2019-05-26T21:35:11.217Z,51.57
2019-05-26T21:37:43.092Z,51.86
2019-05-26T21:40:13.280Z,52.04
2019-05-26T21:42:42.745Z,52.14
2019-05-26T21:45:13.013Z,52.26
2019-05-26T21:47:42.648Z,52.32
2019-05-26T21:50:12.266Z,52.40
2019-05-26T21:52:41.800Z,52.44
2019-05-26T21:55:13.090Z,52.51
2019-05-26T21:57:42.622Z,52.55
2019-05-26T22:00:14.938Z,52.61
2019-05-26T22:02:44.679Z,52.70
2019-05-26T22:05:14.306Z,52.72
2019-05-26T22:07:44.045Z,52.72
2019-05-26T22:10:14.097Z,52.66
2019-05-26T22:12:45.956Z,52.59
2019-05-26T22:15:15.651Z,52.46
2019-05-26T22:17:49.056Z,52.33
2019-05-26T22:20:18.761Z,52.25
2019-05-26T22:22:48.189Z,52.03
2019-05-26T22:25:17.722Z,51.98
2019-05-26T22:27:49.635Z,51.77
2019-05-26T22:30:19.351Z,51.73
2019-05-26T22:32:48.944Z,51.69
2019-05-26T22:35:23.043Z,51.78
2019-05-26T22:37:52.684Z,51.89
2019-05-26T22:40:23.522Z,51.89
2019-05-26T22:42:53.001Z,51.95
2019-05-26T22:45:24.092Z,51.94
2019-05-26T22:47:53.613Z,51.97
2019-05-26T22:50:23.187Z,52.00
2019-05-26T22:52:52.546Z,51.94
2019-05-26T22:55:21.938Z,51.91
2019-05-26T22:57:51.344Z,51.78
2019-05-26T23:00:20.710Z,51.86
2019-05-26T23:02:50.118Z,51.80
2019-05-26T23:05:19.472Z,51.65
2019-05-26T23:07:48.954Z,51.59
2019-05-26T23:10:18.600Z,51.41
2019-05-26T23:12:48.254Z,51.39
2019-05-26T23:15:18.116Z,51.23
2019-05-26T23:17:47.573Z,51.14
2019-05-26T23:20:17.037Z,50.99
2019-05-26T23:22:46.464Z,51.00
2019-05-26T23:25:16.104Z,50.95
2019-05-26T23:27:45.480Z,50.94
2019-05-26T23:30:15.102Z,51.11
2019-05-26T23:32:44.534Z,51.15
2019-05-26T23:35:15.424Z,51.54
2019-05-26T23:37:44.794Z,51.54
2019-05-26T23:40:14.197Z,51.71
2019-05-26T23:42:43.507Z,51.88
2019-05-26T23:45:12.990Z,52.00
2019-05-26T23:47:42.354Z,52.34
2019-05-26T23:50:11.785Z,52.67
2019-05-26T23:52:41.652Z,53.08
2019-05-26T23:55:13.281Z,53.24
2019-05-26T23:57:42.637Z,53.40
